Time;durP1;ratioP1;P1;durP2;ratioP2;P2;SDS_P1;SDS_P2;PMS_P1;PMS_P2;Temp;Humidity;BMP_temperature;BMP_pressure;BME280_temperature;BME280_humidity;BME280_pressure;Samples;Min_cycle;Max_cycle;Signal;HPM_P1;HPM_P2
2022/11/19 00:00:48;;;;;;;2.47;1.40;;;5.00;91.50;;;;;;6308808;22;19999;-78
2022/11/19 00:03:16;;;;;;;2.30;1.30;;;4.90;91.40;;;;;;6304554;22;20441;-78
2022/11/19 00:05:45;;;;;;;3.72;1.42;;;4.90;91.40;;;;;;6333360;22;19999;-78
2022/11/19 00:08:12;;;;;;;2.28;1.20;;;5.00;91.40;;;;;;6332923;22;20030;-77
2022/11/19 00:10:38;;;;;;;2.10;1.42;;;5.10;91.50;;;;;;6332243;22;20148;-78
2022/11/19 00:13:06;;;;;;;2.42;1.48;;;5.00;91.40;;;;;;6337114;22;20006;-78
2022/11/19 00:15:34;;;;;;;3.17;1.45;;;5.00;91.40;;;;;;6333965;22;20007;-78
2022/11/19 00:18:00;;;;;;;3.10;1.58;;;5.00;91.30;;;;;;6336321;22;20338;-79
2022/11/19 00:20:26;;;;;;;2.75;1.40;;;5.00;91.30;;;;;;6332482;22;20007;-79
2022/11/19 00:22:53;;;;;;;3.03;1.40;;;4.90;91.30;;;;;;6336461;22;20007;-78
2022/11/19 00:25:20;;;;;;;2.05;1.23;;;4.90;91.30;;;;;;6336927;22;20457;-79
2022/11/19 00:27:46;;;;;;;2.13;1.35;;;4.90;91.40;;;;;;6333181;22;20327;-78
2022/11/19 00:30:12;;;;;;;3.22;1.67;;;4.90;91.40;;;;;;6306813;22;20011;-79
2022/11/19 00:32:38;;;;;;;2.60;1.50;;;4.90;91.40;;;;;;6336518;22;20014;-78
2022/11/19 00:35:04;;;;;;;2.78;1.60;;;4.90;91.40;;;;;;6307803;22;20007;-78
2022/11/19 00:37:30;;;;;;;3.25;1.70;;;4.90;91.40;;;;;;6336933;22;19999;-78
2022/11/19 00:39:55;;;;;;;2.92;1.70;;;4.80;91.30;;;;;;6336922;22;20037;-79
2022/11/19 00:42:21;;;;;;;3.78;1.60;;;4.80;91.30;;;;;;6334590;22;20003;-80
2022/11/19 00:44:47;;;;;;;2.97;1.60;;;4.80;91.30;;;;;;6281604;22;20002;-79
2022/11/19 00:47:13;;;;;;;2.65;1.58;;;4.80;91.30;;;;;;6332258;22;20451;-79
2022/11/19 00:49:38;;;;;;;2.33;1.33;;;4.70;91.30;;;;;;6336821;22;20003;-78
2022/11/19 00:52:04;;;;;;;2.33;1.52;;;4.80;91.40;;;;;;6333976;22;20073;-80
2022/11/19 00:54:29;;;;;;;3.80;1.75;;;4.80;91.30;;;;;;6332571;22;20026;-79
2022/11/19 00:56:55;;;;;;;3.38;1.92;;;4.70;91.50;;;;;;6331422;22;20056;-78
2022/11/19 00:59:21;;;;;;;3.10;1.70;;;4.70;91.30;;;;;;6336811;22;20069;-78
2022/11/19 01:01:47;;;;;;;3.85;1.60;;;4.70;91.30;;;;;;6333492;22;20002;-78
2022/11/19 01:04:12;;;;;;;3.08;1.70;;;4.60;91.30;;;;;;6332449;22;20014;-79
2022/11/19 01:06:45;;;;;;;2.78;1.40;;;4.70;91.30;;;;;;6336801;22;20007;-78
2022/11/19 01:09:11;;;;;;;2.45;1.55;;;4.60;91.30;;;;;;6334617;22;19999;-79
2022/11/19 01:11:37;;;;;;;2.72;1.58;;;4.70;91.30;;;;;;6333691;22;20014;-79
2022/11/19 01:14:04;;;;;;;2.47;1.40;;;4.60;91.20;;;;;;6333322;22;20014;-78
2022/11/19 01:16:33;;;;;;;3.30;1.60;;;4.60;91.20;;;;;;6332679;22;20438;-79
2022/11/19 01:18:59;;;;;;;3.72;1.98;;;4.70;91.20;;;;;;6329360;22;19999;-79
2022/11/19 01:21:28;;;;;;;3.33;1.63;;;4.60;91.20;;;;;;6336929;22;20001;-79
2022/11/19 01:23:54;;;;;;;3.85;2.00;;;4.60;91.20;;;;;;6337604;22;19998;-78
2022/11/19 01:26:20;;;;;;;4.55;1.95;;;4.60;91.20;;;;;;6333451;22;20011;-78
2022/11/19 01:28:46;;;;;;;3.35;1.65;;;4.60;91.20;;;;;;6333331;22;20412;-77
2022/11/19 01:31:15;;;;;;;3.65;1.80;;;4.60;91.10;;;;;;6334613;22;20003;-78
2022/11/19 01:33:41;;;;;;;4.10;1.98;;;4.60;91.20;;;;;;6334534;22;20045;-79
2022/11/19 01:36:12;;;;;;;3.88;1.88;;;4.50;91.10;;;;;;6337278;22;19999;-80
2022/11/19 01:38:38;;;;;;;4.30;2.30;;;4.50;91.10;;;;;;6336901;22;19995;-78
2022/11/19 01:41:04;;;;;;;2.70;1.48;;;4.50;91.10;;;;;;6336345;22;20141;-79
2022/11/19 01:43:43;;;;;;;2.88;1.60;;;4.50;91.20;;;;;;6333700;22;20423;-78
2022/11/19 01:46:12;;;;;;;3.20;1.80;;;4.50;91.20;;;;;;6333284;22;20423;-78
2022/11/19 01:48:45;;;;;;;3.85;2.08;;;4.40;91.10;;;;;;6332802;22;20007;-79
2022/11/19 01:51:15;;;;;;;4.28;2.28;;;4.50;91.10;;;;;;6307989;22;20042;-78
2022/11/19 01:53:43;;;;;;;3.60;1.70;;;4.40;91.10;;;;;;6336055;22;20057;-79
2022/11/19 01:56:09;;;;;;;3.95;2.20;;;4.40;91.00;;;;;;6336267;22;20046;-78
2022/11/19 01:58:39;;;;;;;3.45;1.90;;;4.50;91.10;;;;;;6332099;22;20003;-79
2022/11/19 02:01:07;;;;;;;4.70;2.25;;;4.40;91.10;;;;;;6331831;22;20347;-78
2022/11/19 02:03:34;;;;;;;4.00;1.80;;;4.30;91.00;;;;;;6334868;22;19999;-79
2022/11/19 02:06:01;;;;;;;3.28;1.60;;;4.30;91.10;;;;;;6333728;22;20055;-79
2022/11/19 02:08:44;;;;;;;2.78;1.63;;;4.30;91.10;;;;;;6333664;22;20300;-80
2022/11/19 02:11:50;;;;;;;3.42;1.70;;;4.30;91.10;;;;;;6282677;22;20506;-78
2022/11/19 02:14:46;;;;;;;4.63;2.10;;;4.30;91.00;;;;;;6294887;22;20026;-79
2022/11/19 02:17:37;;;;;;;4.85;2.22;;;4.30;91.00;;;;;;6336151;22;20006;-78
2022/11/19 02:20:33;;;;;;;3.28;1.70;;;4.20;90.90;;;;;;6333906;22;20007;-78
2022/11/19 02:23:27;;;;;;;3.42;1.90;;;4.20;91.00;;;;;;6335685;22;20003;-79
2022/11/19 02:26:16;;;;;;;4.45;2.13;;;4.20;91.00;;;;;;6282928;22;20331;-79
2022/11/19 02:29:14;;;;;;;4.63;2.25;;;4.20;91.00;;;;;;6336078;22;20394;-79
2022/11/19 02:31:54;;;;;;;4.38;2.00;;;4.10;91.00;;;;;;6332396;22;20003;-79
2022/11/19 02:34:29;;;;;;;5.05;2.30;;;4.10;90.90;;;;;;6336071;22;20014;-78
2022/11/19 02:37:06;;;;;;;3.72;2.28;;;4.10;91.00;;;;;;6331847;22;20002;-79
2022/11/19 02:39:40;;;;;;;3.88;2.05;;;4.10;91.00;;;;;;6334117;22;20497;-78
2022/11/19 02:42:17;;;;;;;4.28;2.22;;;4.10;91.00;;;;;;6305161;22;19999;-79
2022/11/19 02:45:07;;;;;;;4.65;2.13;;;4.10;91.00;;;;;;6281689;22;20075;-78
2022/11/19 02:47:43;;;;;;;3.72;1.80;;;4.10;90.90;;;;;;6334016;22;20473;-79
2022/11/19 02:50:16;;;;;;;3.80;2.10;;;4.00;90.90;;;;;;6309446;22;20086;-79
2022/11/19 02:52:43;;;;;;;3.40;1.80;;;4.00;90.90;;;;;;6333800;22;20007;-79
2022/11/19 02:55:12;;;;;;;3.85;1.90;;;4.10;90.90;;;;;;6335907;22;19999;-79
2022/11/19 02:57:44;;;;;;;4.53;2.50;;;4.00;90.90;;;;;;6335464;22;20326;-79
2022/11/19 03:05:47;;;;;;;6.85;3.45;;;4.00;90.90;;;;;;6337564;22;20022;-79
2022/11/19 03:08:13;;;;;;;6.28;3.38;;;3.90;90.80;;;;;;6331713;22;20011;-79
2022/11/19 03:11:16;;;;;;;5.30;2.85;;;3.90;90.80;;;;;;6336064;22;20007;-78
2022/11/19 03:16:40;;;;;;;5.28;2.65;;;3.80;90.90;;;;;;6336551;22;20014;-78
2022/11/19 03:19:20;;;;;;;4.70;2.70;;;3.80;90.90;;;;;;6309473;22;20457;-80
2022/11/19 03:21:53;;;;;;;5.25;2.60;;;3.80;90.90;;;;;;6337727;22;19995;-79
2022/11/19 03:24:30;;;;;;;3.97;2.33;;;3.80;90.80;;;;;;6334893;22;20442;-79
2022/11/19 03:27:06;;;;;;;6.20;2.95;;;3.70;90.80;;;;;;6337069;22;20315;-78
2022/11/19 03:29:35;;;;;;;4.72;2.20;;;3.80;90.80;;;;;;6336842;22;19999;-77
2022/11/19 03:32:07;;;;;;;4.45;2.53;;;3.70;90.80;;;;;;6337505;22;19999;-79
2022/11/19 03:34:36;;;;;;;4.50;2.30;;;3.80;90.80;;;;;;6332496;22;20006;-80
2022/11/19 03:37:05;;;;;;;4.82;2.45;;;3.70;90.80;;;;;;6310626;22;20002;-79
2022/11/19 03:39:34;;;;;;;4.05;2.10;;;3.70;90.80;;;;;;6338594;22;19995;-79
2022/11/19 03:42:01;;;;;;;4.18;2.28;;;3.60;90.80;;;;;;6335720;22;20074;-79
2022/11/19 03:44:32;;;;;;;5.13;2.40;;;3.60;90.80;;;;;;6335340;22;20027;-79
2022/11/19 03:47:03;;;;;;;4.72;2.28;;;3.60;90.80;;;;;;6337501;22;20002;-78
2022/11/19 03:49:35;;;;;;;4.05;2.20;;;3.60;90.80;;;;;;6337527;22;19995;-79
2022/11/19 03:52:09;;;;;;;4.72;2.50;;;3.60;90.80;;;;;;6335505;22;20423;-78
2022/11/19 03:54:35;;;;;;;3.92;2.17;;;3.50;90.80;;;;;;6337414;22;20311;-78
2022/11/19 03:57:02;;;;;;;3.97;2.13;;;3.50;90.80;;;;;;6337072;22;20048;-78
2022/11/19 03:59:28;;;;;;;4.60;2.20;;;3.60;90.80;;;;;;6336581;22;20027;-79
2022/11/19 04:01:57;;;;;;;4.20;2.35;;;3.60;90.80;;;;;;6337105;22;19998;-78
2022/11/19 04:04:38;;;;;;;5.20;2.88;;;3.50;90.80;;;;;;6334843;22;19999;-79
2022/11/19 04:07:11;;;;;;;4.65;2.55;;;3.50;90.80;;;;;;6337077;22;19995;-79
2022/11/19 04:09:38;;;;;;;4.05;2.20;;;3.40;90.70;;;;;;6335344;22;20156;-79
2022/11/19 04:12:05;;;;;;;5.88;2.85;;;3.50;90.70;;;;;;6334846;22;20006;-79
2022/11/19 04:14:30;;;;;;;5.35;2.75;;;3.50;90.70;;;;;;6334959;22;20002;-79
2022/11/19 04:16:56;;;;;;;5.45;2.58;;;3.50;90.70;;;;;;6338345;22;20285;-79
2022/11/19 04:19:22;;;;;;;5.05;2.40;;;3.50;90.70;;;;;;6336050;22;19995;-79
2022/11/19 04:21:47;;;;;;;5.88;2.75;;;3.40;90.70;;;;;;6337745;22;20299;-78
2022/11/19 04:24:13;;;;;;;4.70;2.28;;;3.40;90.60;;;;;;6332674;22;19998;-79
2022/11/19 04:26:39;;;;;;;4.30;2.45;;;3.40;90.60;;;;;;6337579;22;20300;-80
2022/11/19 04:29:04;;;;;;;5.20;2.63;;;3.40;90.60;;;;;;6337355;22;20430;-79
2022/11/19 04:31:30;;;;;;;4.88;2.58;;;3.30;90.60;;;;;;6310999;22;20006;-78
2022/11/19 04:33:55;;;;;;;5.50;2.50;;;3.30;90.60;;;;;;6334715;22;20030;-78
2022/11/19 04:36:21;;;;;;;4.82;2.75;;;3.30;90.80;;;;;;6310415;22;20363;-79
2022/11/19 04:38:47;;;;;;;5.60;3.08;;;3.20;90.60;;;;;;6337592;22;20005;-79
2022/11/19 04:41:12;;;;;;;5.95;2.97;;;3.20;90.60;;;;;;6337111;22;20003;-78
2022/11/19 04:43:38;;;;;;;5.47;2.90;;;3.20;90.60;;;;;;6337691;22;20060;-79
2022/11/19 04:46:04;;;;;;;6.00;3.10;;;3.10;90.60;;;;;;6310091;22;20300;-78
2022/11/19 04:48:29;;;;;;;6.07;3.55;;;3.10;90.60;;;;;;6336996;22;20007;-79
2022/11/19 04:50:55;;;;;;;7.43;3.75;;;3.10;90.60;;;;;;6338093;22;20002;-81
2022/11/19 04:53:20;;;;;;;6.15;3.53;;;3.00;90.60;;;;;;6307343;22;20010;-79
2022/11/19 04:55:46;;;;;;;5.75;3.13;;;3.10;90.60;;;;;;6335752;22;20132;-79
2022/11/19 04:58:12;;;;;;;6.47;3.40;;;3.10;90.60;;;;;;6335131;22;19999;-78
2022/11/19 05:00:37;;;;;;;6.13;3.63;;;3.10;90.60;;;;;;6337918;22;20331;-79
2022/11/19 05:03:03;;;;;;;6.82;3.88;;;3.10;90.60;;;;;;6334816;22;20035;-78
2022/11/19 05:05:29;;;;;;;6.18;3.22;;;3.00;90.50;;;;;;6308338;22;20003;-79
2022/11/19 05:07:54;;;;;;;6.65;3.38;;;3.20;90.60;;;;;;6333814;22;20017;-78
2022/11/19 05:10:20;;;;;;;6.25;3.17;;;3.10;90.50;;;;;;6306949;22;20038;-79
2022/11/19 05:12:46;;;;;;;6.60;3.33;;;3.10;90.50;;;;;;6333890;22;20021;-78
2022/11/19 05:15:11;;;;;;;4.95;2.90;;;3.10;90.50;;;;;;6337078;22;20006;-79
2022/11/19 05:17:37;;;;;;;5.90;3.10;;;3.00;90.50;;;;;;6335297;22;20004;-78
2022/11/19 05:20:03;;;;;;;5.72;3.08;;;3.00;90.40;;;;;;6338198;22;20001;-79
2022/11/19 05:22:28;;;;;;;4.95;2.60;;;3.00;90.40;;;;;;6336656;22;20323;-79
2022/11/19 05:24:54;;;;;;;4.80;2.63;;;3.00;90.40;;;;;;6308110;22;20308;-78
2022/11/19 05:27:20;;;;;;;5.43;2.92;;;3.00;90.40;;;;;;6337730;22;20006;-78
2022/11/19 05:29:45;;;;;;;5.90;3.05;;;3.00;90.40;;;;;;6310368;22;20454;-79
2022/11/19 05:32:11;;;;;;;6.22;2.83;;;3.00;90.40;;;;;;6333073;22;20003;-78
2022/11/19 05:34:36;;;;;;;5.45;3.03;;;2.90;90.40;;;;;;6337028;22;20457;-78
2022/11/19 05:37:02;;;;;;;5.50;2.85;;;3.10;90.50;;;;;;6331675;22;20006;-78
2022/11/19 05:39:27;;;;;;;5.57;3.10;;;2.90;90.40;;;;;;6334134;22;20002;-78
2022/11/19 05:41:53;;;;;;;6.20;3.10;;;3.00;90.40;;;;;;6327287;22;20006;-79
2022/11/19 05:44:19;;;;;;;6.00;3.03;;;3.00;90.40;;;;;;6335714;22;20277;-79
2022/11/19 05:46:44;;;;;;;6.05;2.95;;;2.90;90.40;;;;;;6338406;22;20387;-78
2022/11/19 05:49:10;;;;;;;5.65;3.00;;;2.90;90.40;;;;;;6335749;22;20021;-79
2022/11/19 05:51:36;;;;;;;6.40;2.97;;;2.90;90.40;;;;;;6335388;22;19999;-79
2022/11/19 05:54:02;;;;;;;5.38;2.70;;;2.90;90.40;;;;;;6335952;22;20431;-79
2022/11/19 05:56:27;;;;;;;5.05;2.80;;;2.90;90.40;;;;;;6337803;22;20003;-79
2022/11/19 05:58:53;;;;;;;4.20;2.25;;;2.90;90.40;;;;;;6335177;22;20013;-79
2022/11/19 06:01:27;;;;;;;4.75;2.53;;;2.90;90.40;;;;;;6337000;22;20003;-79
2022/11/19 06:03:53;;;;;;;5.57;2.67;;;2.80;90.40;;;;;;6338150;22;20007;-79
2022/11/19 06:06:19;;;;;;;4.80;2.80;;;2.80;90.30;;;;;;6336198;22;20007;-78
2022/11/19 06:08:44;;;;;;;5.10;2.80;;;2.90;90.40;;;;;;6336552;22;20006;-78
2022/11/19 06:11:46;;;;;;;5.15;2.95;;;2.80;90.30;;;;;;6335239;22;20002;-79
2022/11/19 06:13:55;;;;;;;5.50;2.90;;;2.80;90.30;;;;;;6335224;22;20007;-78
2022/11/19 06:16:21;;;;;;;4.78;2.60;;;2.80;90.30;;;;;;6333933;22;20019;-78
2022/11/19 06:18:47;;;;;;;5.25;2.70;;;2.80;90.40;;;;;;6337532;22;20001;-78
2022/11/19 06:21:12;;;;;;;4.78;2.45;;;2.80;90.30;;;;;;6334308;22;19999;-78
2022/11/19 06:23:38;;;;;;;4.90;2.55;;;2.70;90.30;;;;;;6307597;22;20474;-78
2022/11/19 06:26:05;;;;;;;4.40;2.20;;;2.70;90.40;;;;;;6336208;22;19999;-78
2022/11/19 06:28:31;;;;;;;4.65;2.58;;;2.70;90.40;;;;;;6334532;22;20076;-80
2022/11/19 06:30:56;;;;;;;3.85;2.25;;;2.60;90.40;;;;;;6337798;22;20423;-79
2022/11/19 06:33:22;;;;;;;5.00;2.60;;;2.60;90.40;;;;;;6338214;22;19999;-78
2022/11/19 06:35:48;;;;;;;4.97;2.35;;;2.60;90.40;;;;;;6335922;22;20002;-79
2022/11/19 06:38:13;;;;;;;5.30;2.53;;;2.60;90.40;;;;;;6307768;22;20082;-79
2022/11/19 06:40:39;;;;;;;4.10;2.30;;;2.70;90.40;;;;;;6336120;22;20373;-79
2022/11/19 06:43:04;;;;;;;4.47;2.20;;;2.60;90.30;;;;;;6337675;22;20007;-78
2022/11/19 06:45:30;;;;;;;5.85;2.72;;;2.60;90.40;;;;;;6335859;22;20021;-77
2022/11/19 06:47:56;;;;;;;4.75;2.42;;;2.50;90.30;;;;;;6337870;22;20007;-78
2022/11/19 06:50:21;;;;;;;4.25;2.03;;;2.50;90.40;;;;;;6309989;22;20045;-80
2022/11/19 06:52:47;;;;;;;4.85;2.38;;;2.50;90.40;;;;;;6310299;22;20308;-79
2022/11/19 06:55:13;;;;;;;5.18;2.25;;;2.50;90.30;;;;;;6335622;22;20011;-78
2022/11/19 06:57:39;;;;;;;4.45;2.05;;;2.40;90.30;;;;;;6335626;22;19994;-79
2022/11/19 07:00:05;;;;;;;5.15;2.50;;;2.40;90.30;;;;;;6337685;22;20011;-79
2022/11/19 07:02:30;;;;;;;4.88;2.30;;;2.40;90.40;;;;;;6333038;22;20029;-79
2022/11/19 07:04:56;;;;;;;5.72;2.40;;;2.40;90.40;;;;;;6337568;22;20007;-79
2022/11/19 07:07:22;;;;;;;4.85;2.42;;;2.40;90.30;;;;;;6285811;22;20078;-78
2022/11/19 07:09:47;;;;;;;3.75;1.92;;;2.40;90.30;;;;;;6338498;22;20297;-78
2022/11/19 07:12:13;;;;;;;4.75;2.47;;;2.40;90.30;;;;;;6337096;22;20002;-78
2022/11/19 07:14:39;;;;;;;4.22;2.28;;;2.40;90.30;;;;;;6339507;22;19999;-79
2022/11/19 07:17:05;;;;;;;4.35;2.10;;;2.30;90.30;;;;;;6312099;22;19995;-78
2022/11/19 07:19:31;;;;;;;4.65;2.20;;;2.40;90.30;;;;;;6288154;22;19995;-78
2022/11/19 07:21:56;;;;;;;3.83;2.03;;;2.40;90.30;;;;;;6339365;22;20018;-79
2022/11/19 07:24:22;;;;;;;4.47;2.30;;;2.30;90.30;;;;;;6338583;22;20011;-78
2022/11/19 07:26:47;;;;;;;5.10;2.50;;;2.30;90.30;;;;;;6337764;22;19999;-79
2022/11/19 07:29:14;;;;;;;5.50;2.50;;;2.30;90.20;;;;;;6339694;22;20015;-78
2022/11/19 07:31:40;;;;;;;5.20;2.78;;;2.40;90.30;;;;;;6312003;22;20431;-78
2022/11/19 07:34:07;;;;;;;5.10;2.45;;;2.30;90.20;;;;;;6337662;22;20038;-79
2022/11/19 07:36:33;;;;;;;4.72;2.28;;;2.30;90.30;;;;;;6332529;22;20007;-79
2022/11/19 07:38:59;;;;;;;4.10;2.20;;;2.20;90.30;;;;;;6338767;22;20034;-79
2022/11/19 07:44:04;;;;;;;4.25;2.28;;;2.20;90.20;;;;;;6339887;22;20011;-79
2022/11/19 07:46:30;;;;;;;5.90;2.90;;;2.20;90.20;;;;;;6338350;22;20007;-79
2022/11/19 07:48:57;;;;;;;4.95;2.47;;;2.20;90.20;;;;;;6337655;22;20079;-78
2022/11/19 07:51:23;;;;;;;5.35;2.92;;;2.20;90.20;;;;;;6340318;22;19995;-79
2022/11/19 07:53:50;;;;;;;4.60;2.25;;;2.20;90.20;;;;;;6335094;22;20003;-77
2022/11/19 07:56:17;;;;;;;4.88;2.33;;;2.30;90.20;;;;;;6326215;22;20022;-79
2022/11/19 07:58:43;;;;;;;5.88;2.97;;;2.30;90.10;;;;;;6337337;22;20007;-79
2022/11/19 08:01:10;;;;;;;5.53;2.72;;;2.20;90.10;;;;;;6336118;22;20388;-78
2022/11/19 08:03:36;;;;;;;3.92;2.13;;;2.30;90.10;;;;;;6338356;22;20030;-78
2022/11/19 08:06:03;;;;;;;4.47;2.30;;;2.20;90.00;;;;;;6339372;22;20003;-78
2022/11/19 08:08:30;;;;;;;3.65;2.05;;;2.30;90.10;;;;;;6338881;22;19995;-78
2022/11/19 08:10:55;;;;;;;4.40;2.35;;;2.20;90.00;;;;;;6336450;22;20338;-79
2022/11/19 08:13:21;;;;;;;4.55;2.40;;;2.30;90.10;;;;;;6311297;22;19999;-79
2022/11/19 08:15:47;;;;;;;6.22;2.35;;;2.30;90.10;;;;;;6310968;22;20013;-80
2022/11/19 08:18:12;;;;;;;4.75;2.17;;;2.30;90.00;;;;;;6336563;22;20361;-79
2022/11/19 08:20:40;;;;;;;4.63;2.22;;;2.20;90.00;;;;;;6337546;22;20003;-79
2022/11/19 08:23:06;;;;;;;4.97;2.45;;;2.20;90.30;;;;;;6310061;22;20034;-79
2022/11/19 08:25:31;;;;;;;4.20;1.92;;;2.20;90.00;;;;;;6337725;22;19994;-78
2022/11/19 08:27:57;;;;;;;5.05;2.47;;;2.20;90.00;;;;;;6336546;22;20052;-78
2022/11/19 08:30:23;;;;;;;3.78;2.00;;;2.20;90.00;;;;;;6336846;22;19995;-79
2022/11/19 08:32:48;;;;;;;4.90;2.28;;;2.20;90.00;;;;;;6338511;22;20360;-79
2022/11/19 08:35:14;;;;;;;4.38;2.42;;;2.10;90.00;;;;;;6310435;22;20009;-79
2022/11/19 08:37:39;;;;;;;4.60;2.30;;;2.10;90.00;;;;;;6336369;22;20014;-79
2022/11/19 08:40:06;;;;;;;5.00;2.50;;;2.20;90.00;;;;;;6332000;22;20338;-79
2022/11/19 08:45:09;;;;;;;3.72;2.10;;;2.00;90.00;;;;;;6336256;22;20006;-79
2022/11/19 08:47:35;;;;;;;4.22;2.15;;;2.10;90.00;;;;;;6280165;22;20019;-77
2022/11/19 08:50:00;;;;;;;4.50;2.20;;;2.10;90.00;;;;;;6332938;22;19999;-79
2022/11/19 08:52:26;;;;;;;4.85;2.50;;;2.10;89.90;;;;;;6333218;22;20019;-79
2022/11/19 08:54:52;;;;;;;5.05;2.33;;;2.10;89.80;;;;;;6336544;22;20389;-78
2022/11/19 08:57:18;;;;;;;4.75;2.30;;;2.10;89.90;;;;;;6337524;22;20005;-77
2022/11/19 08:59:43;;;;;;;4.82;2.30;;;2.00;89.90;;;;;;6335787;22;20010;-77
2022/11/19 09:02:10;;;;;;;4.55;2.38;;;1.90;89.80;;;;;;6334062;22;20089;-79
2022/11/19 09:04:36;;;;;;;4.28;2.28;;;1.90;89.80;;;;;;6335575;22;20056;-77
2022/11/19 09:07:01;;;;;;;3.88;1.95;;;1.80;90.00;;;;;;6336168;22;20007;-77
2022/11/19 09:09:27;;;;;;;5.82;2.42;;;1.80;90.00;;;;;;6335096;22;20017;-77
2022/11/19 09:11:54;;;;;;;3.88;1.92;;;1.80;90.00;;;;;;6337453;22;19995;-78
2022/11/19 09:14:20;;;;;;;4.35;2.25;;;1.80;90.00;;;;;;6337431;22;20063;-77
2022/11/19 09:16:45;;;;;;;3.63;2.03;;;1.70;90.00;;;;;;6335135;22;20427;-77
2022/11/19 09:19:11;;;;;;;4.32;1.90;;;1.70;90.10;;;;;;6337469;22;20003;-77
2022/11/19 09:21:37;;;;;;;3.78;2.10;;;1.60;90.00;;;;;;6335529;22;20319;-77
2022/11/19 09:24:02;;;;;;;3.63;1.67;;;1.70;90.10;;;;;;6335151;22;20066;-78
2022/11/19 09:26:28;;;;;;;3.80;1.88;;;1.60;90.00;;;;;;6335716;22;19999;-77
2022/11/19 09:28:54;;;;;;;3.13;1.60;;;1.60;90.00;;;;;;6337695;22;20370;-77
2022/11/19 09:31:19;;;;;;;3.30;1.63;;;1.60;90.00;;;;;;6337389;22;19995;-76
2022/11/19 09:33:48;;;;;;;3.83;2.00;;;1.70;90.00;;;;;;6340691;22;20003;-77
2022/11/19 09:36:14;;;;;;;3.58;1.80;;;1.60;89.80;;;;;;6335416;22;20427;-81
2022/11/19 09:38:40;;;;;;;3.67;1.73;;;1.60;90.20;;;;;;6309386;22;19999;-80
2022/11/19 09:41:39;;;;;;;3.92;2.00;;;1.60;89.80;;;;;;6283036;22;20005;-81
2022/11/19 09:44:21;;;;;;;3.65;1.80;;;1.70;89.90;;;;;;6312889;22;20026;-79
2022/11/19 09:47:01;;;;;;;3.60;1.83;;;1.60;89.60;;;;;;6337450;22;20003;-81
2022/11/19 09:49:48;;;;;;;4.15;1.88;;;1.70;89.50;;;;;;6335054;22;20004;-80
2022/11/19 09:52:19;;;;;;;3.17;1.67;;;1.80;89.50;;;;;;6308625;22;20038;-81
2022/11/19 09:54:49;;;;;;;2.45;1.42;;;1.70;89.40;;;;;;6335482;22;20002;-80
2022/11/19 09:57:25;;;;;;;3.38;1.60;;;1.80;89.40;;;;;;6334873;22;20006;-80
2022/11/19 09:59:56;;;;;;;4.25;2.42;;;1.80;89.30;;;;;;6310593;22;19999;-79
2022/11/19 10:02:22;;;;;;;3.58;1.63;;;1.80;89.10;;;;;;6336974;22;20072;-80
2022/11/19 10:04:50;;;;;;;2.83;1.65;;;1.80;89.00;;;;;;6334905;22;19999;-78
2022/11/19 10:07:32;;;;;;;3.60;1.85;;;1.80;89.00;;;;;;6334538;22;19999;-78
2022/11/19 10:10:02;;;;;;;;;;;1.80;89.00;;;;;;6310976;22;20050;-79
2022/11/19 10:13:10;;;;;;;3.50;1.70;;;1.80;89.00;;;;;;6336097;22;19906;-79
2022/11/19 10:16:03;;;;;;;3.80;1.70;;;1.90;88.80;;;;;;6336211;22;20025;-79
2022/11/19 10:18:41;;;;;;;3.70;1.83;;;2.00;88.60;;;;;;6314169;22;20002;-79
2022/11/19 10:21:21;;;;;;;3.13;1.70;;;1.90;88.60;;;;;;6309879;22;20445;-79
2022/11/19 10:23:59;;;;;;;3.50;1.63;;;2.00;88.60;;;;;;6334837;22;20019;-81
2022/11/19 10:26:33;;;;;;;4.13;2.03;;;2.00;88.50;;;;;;6345369;22;20019;-78
2022/11/19 10:29:00;;;;;;;4.32;2.03;;;2.00;88.40;;;;;;6335836;22;19995;-79
2022/11/19 10:31:35;;;;;;;3.75;1.85;;;1.90;88.30;;;;;;6334164;22;19995;-80
2022/11/19 10:34:18;;;;;;;2.80;1.60;;;2.00;88.40;;;;;;6334104;22;20003;-79
2022/11/19 10:36:51;;;;;;;3.58;1.60;;;2.10;88.40;;;;;;6336500;22;20082;-78
2022/11/19 10:39:25;;;;;;;3.47;1.73;;;2.00;88.90;;;;;;6309760;22;20014;-78
2022/11/19 10:41:59;;;;;;;3.08;1.45;;;2.00;88.20;;;;;;6309383;22;20445;-79
2022/11/19 10:44:44;;;;;;;2.78;1.55;;;2.00;88.20;;;;;;6335288;22;20007;-78
2022/11/19 10:47:30;;;;;;;2.65;1.45;;;2.10;88.20;;;;;;6336589;22;20052;-78
2022/11/19 10:49:56;;;;;;;2.95;1.40;;;2.10;88.10;;;;;;6307894;22;20446;-78
2022/11/19 10:52:27;;;;;;;2.75;1.52;;;2.10;87.90;;;;;;6336432;22;19998;-78
2022/11/19 10:54:56;;;;;;;;;;;2.20;87.90;;;;;;6336042;22;20025;-76
2022/11/19 10:57:23;;;;;;;3.03;1.60;;;2.20;87.90;;;;;;6335502;22;19998;-77
2022/11/19 10:59:51;;;;;;;2.70;1.48;;;2.20;87.80;;;;;;6331370;22;20011;-76
2022/11/19 11:02:25;;;;;;;2.72;1.48;;;2.30;87.60;;;;;;6308799;22;20007;-77
2022/11/19 11:05:09;;;;;;;2.22;1.25;;;2.30;87.60;;;;;;6336099;22;20061;-76
2022/11/19 11:07:47;;;;;;;2.80;1.45;;;2.20;87.40;;;;;;6335984;22;20082;-77
2022/11/19 11:10:32;;;;;;;3.72;1.75;;;2.40;87.40;;;;;;6335656;22;20573;-76
2022/11/19 11:15:52;;;;;;;2.65;1.38;;;2.30;87.30;;;;;;6331943;22;20443;-77
2022/11/19 11:18:25;;;;;;;2.58;1.42;;;2.30;87.30;;;;;;6335198;22;20305;-77
2022/11/19 11:20:51;;;;;;;2.22;1.30;;;2.40;87.30;;;;;;6337022;22;20439;-77
2022/11/19 11:23:21;;;;;;;2.90;1.60;;;2.50;87.30;;;;;;6335079;22;20014;-78
2022/11/19 11:26:02;;;;;;;2.53;1.48;;;2.40;87.00;;;;;;6337194;22;20091;-78
2022/11/19 11:28:28;;;;;;;2.65;1.45;;;2.50;87.00;;;;;;6334801;22;20056;-77
2022/11/19 11:30:59;;;;;;;4.22;2.10;;;2.50;86.90;;;;;;6336937;22;20006;-77
2022/11/19 11:33:47;;;;;;;3.17;1.50;;;2.50;86.70;;;;;;6333309;22;19998;-77
2022/11/19 11:36:16;;;;;;;2.63;1.52;;;2.50;86.70;;;;;;6311955;22;20007;-77
2022/11/19 11:38:44;;;;;;;2.33;1.40;;;2.50;86.70;;;;;;6336900;22;20019;-77
2022/11/19 11:41:13;;;;;;;3.22;1.73;;;2.50;86.60;;;;;;6307247;22;20018;-77
2022/11/19 11:44:00;;;;;;;3.17;1.77;;;2.50;86.50;;;;;;6335273;22;20013;-78
2022/11/19 11:46:35;;;;;;;2.58;1.48;;;2.60;86.50;;;;;;6336095;22;20087;-77
2022/11/19 11:49:02;;;;;;;3.25;1.50;;;2.70;86.40;;;;;;6337053;22;20361;-76
2022/11/19 11:51:34;;;;;;;3.15;1.73;;;2.60;86.30;;;;;;6309187;22;20059;-78
2022/11/19 11:54:05;;;;;;;;;;;2.80;86.20;;;;;;6337405;22;19999;-77
2022/11/19 11:56:30;;;;;;;2.57;1.40;;;2.90;86.20;;;;;;6335396;22;19981;-77
2022/11/19 11:59:14;;;;;;;3.58;1.50;;;2.90;86.00;;;;;;6335060;22;20050;-77
2022/11/19 12:01:41;;;;;;;2.85;1.50;;;3.00;86.50;;;;;;6332026;22;20006;-77
2022/11/19 12:04:11;;;;;;;3.60;1.73;;;3.10;85.60;;;;;;6308896;22;20006;-77
2022/11/19 12:06:56;;;;;;;3.28;1.52;;;3.10;85.30;;;;;;6337460;22;20006;-77
2022/11/19 12:09:31;;;;;;;2.80;1.48;;;3.20;85.30;;;;;;6336853;22;19999;-77
2022/11/19 12:12:04;;;;;;;3.15;1.60;;;3.20;85.10;;;;;;6331695;22;19995;-77
2022/11/19 12:14:39;;;;;;;3.38;1.70;;;3.30;85.10;;;;;;6337283;22;20006;-76
2022/11/19 12:17:29;;;;;;;3.05;1.67;;;3.30;84.80;;;;;;6337376;22;20346;-77
2022/11/19 12:20:29;;;;;;;2.35;1.48;;;3.40;84.80;;;;;;6336532;22;20078;-77
2022/11/19 12:23:18;;;;;;;2.63;1.50;;;3.40;84.70;;;;;;6316260;22;20011;-77
2022/11/19 12:26:11;;;;;;;2.90;1.50;;;3.60;84.80;;;;;;6336663;22;20019;-78
2022/11/19 12:28:57;;;;;;;2.45;1.40;;;3.50;84.50;;;;;;6336563;22;20435;-77
2022/11/19 12:31:45;;;;;;;2.30;1.23;;;3.60;84.40;;;;;;6337338;22;20002;-78
2022/11/19 12:34:30;;;;;;;2.53;1.50;;;3.70;84.20;;;;;;6336628;22;19998;-77
2022/11/19 12:37:20;;;;;;;2.92;1.55;;;3.70;84.00;;;;;;6335173;22;20415;-77
2022/11/19 12:39:53;;;;;;;1.92;1.20;;;3.70;84.00;;;;;;6334235;22;20093;-77
2022/11/19 12:42:46;;;;;;;2.55;1.30;;;3.80;83.90;;;;;;6336465;22;20423;-77
2022/11/19 12:45:35;;;;;;;1.90;1.20;;;3.90;83.80;;;;;;6336921;22;19999;-77
2022/11/19 12:48:22;;;;;;;1.50;0.88;;;4.00;84.40;;;;;;6335064;22;20324;-77
2022/11/19 12:51:10;;;;;;;2.08;1.30;;;3.90;84.10;;;;;;6336871;22;20459;-77
2022/11/19 12:54:11;;;;;;;1.85;0.95;;;3.90;83.50;;;;;;6329578;22;20006;-78
2022/11/19 12:57:12;;;;;;;1.92;1.13;;;4.10;83.40;;;;;;6336656;22;20003;-77
2022/11/19 13:00:04;;;;;;;1.80;1.13;;;4.10;83.20;;;;;;6333578;22;20380;-77
2022/11/19 13:02:38;;;;;;;2.08;1.00;;;4.10;83.20;;;;;;6333679;22;20006;-77
2022/11/19 13:05:11;;;;;;;2.22;1.25;;;4.10;83.10;;;;;;6336951;22;20022;-77
2022/11/19 13:07:43;;;;;;;2.10;1.20;;;4.20;83.10;;;;;;6336834;22;20323;-77
2022/11/19 13:10:20;;;;;;;1.50;0.95;;;4.20;82.90;;;;;;6329203;22;20005;-77
2022/11/19 13:12:50;;;;;;;2.40;1.30;;;4.20;82.90;;;;;;6282972;22;20041;-77
2022/11/19 13:15:23;;;;;;;1.30;1.10;;;4.30;82.90;;;;;;6336553;22;20006;-77
2022/11/19 13:17:55;;;;;;;1.67;1.00;;;4.40;82.80;;;;;;6308129;22;20349;-78
2022/11/19 13:20:27;;;;;;;1.65;1.00;;;4.40;82.70;;;;;;6331269;22;20331;-77
2022/11/19 13:22:57;;;;;;;1.15;0.77;;;4.40;82.70;;;;;;6334707;22;20038;-77
2022/11/19 13:25:29;;;;;;;1.83;1.10;;;4.40;82.60;;;;;;6331468;22;20002;-77
2022/11/19 13:27:56;;;;;;;1.42;0.90;;;4.50;82.70;;;;;;6333920;22;20006;-78
2022/11/19 13:30:26;;;;;;;1.63;0.95;;;4.50;82.50;;;;;;6334356;22;20031;-77
2022/11/19 13:33:10;;;;;;;1.02;0.77;;;4.50;82.30;;;;;;6334417;22;20450;-78